Time;durP1;ratioP1;P1;durP2;ratioP2;P2;SDS_P1;SDS_P2;PMS_P1;PMS_P2;Temp;Humidity;BMP_temperature;BMP_pressure;BME280_temperature;BME280_humidity;BME280_pressure;Samples;Min_cycle;Max_cycle;Signal;HPM_P1;HPM_P2
2021/06/10 00:00:17;;;;;;;7.75;5.65;;;;;;;15.30;nan;102062.75;5051537;28;20048;-49
2021/06/10 00:02:43;;;;;;;6.95;4.85;;;;;;;15.32;nan;102070.63;5050848;28;20028;-49
2021/06/10 00:05:11;;;;;;;9.45;4.80;;;;;;;15.32;nan;102071.44;5050570;28;20031;-48
2021/06/10 00:07:37;;;;;;;12.48;5.22;;;;;;;15.28;nan;102081.09;5042402;28;20044;-47
2021/06/10 00:10:11;;;;;;;11.65;5.93;;;;;;;15.31;nan;102083.28;5053203;28;20054;-48
2021/06/10 00:12:37;;;;;;;9.32;5.50;;;;;;;15.29;nan;102080.03;5051731;28;20032;-50
2021/06/10 00:15:05;;;;;;;7.85;5.60;;;;;;;15.27;nan;102078.66;5050209;28;20032;-47
2021/06/10 00:17:30;;;;;;;10.20;6.13;;;;;;;15.28;nan;102075.69;5055214;28;20296;-47
2021/06/10 00:19:56;;;;;;;11.63;6.03;;;;;;;15.27;nan;102065.97;5048887;28;20051;-47
2021/06/10 00:22:21;;;;;;;12.35;6.05;;;;;;;15.22;nan;102065.88;5052316;28;20036;-47
2021/06/10 00:24:47;;;;;;;9.32;5.68;;;;;;;15.22;nan;102056.94;5047758;28;20371;-50
2021/06/10 00:27:20;;;;;;;6.68;5.45;;;;;;;15.08;nan;102061.84;5057568;28;20208;-49
2021/06/10 00:29:45;;;;;;;10.07;6.13;;;;;;;15.16;nan;102055.25;5049649;28;20025;-48
2021/06/10 00:32:13;;;;;;;7.10;5.57;;;;;;;15.09;nan;102055.41;5049961;28;20044;-46
2021/06/10 00:34:38;;;;;;;8.95;6.28;;;;;;;15.09;nan;102050.03;5055010;28;20037;-48
2021/06/10 00:37:04;;;;;;;8.73;6.13;;;;;;;15.10;nan;102057.88;5051173;28;20553;-48
2021/06/10 00:39:29;;;;;;;10.95;7.20;;;;;;;15.14;nan;102052.78;5055255;28;20094;-49
2021/06/10 00:41:55;;;;;;;10.18;6.55;;;;;;;15.15;nan;102053.63;5050349;28;20029;-48
2021/06/10 00:44:20;;;;;;;6.57;5.80;;;;;;;15.14;nan;102058.19;5050142;28;20036;-47
2021/06/10 00:46:46;;;;;;;10.95;6.00;;;;;;;15.16;nan;102050.66;5052936;28;20016;-48
2021/06/10 00:49:11;;;;;;;7.05;5.57;;;;;;;15.13;nan;102051.16;5052332;28;20475;-47
2021/06/10 00:51:38;;;;;;;6.28;5.50;;;;;;;15.10;nan;102052.47;5053198;28;20277;-49
2021/06/10 00:54:05;;;;;;;7.00;5.90;;;;;;;15.05;nan;102044.28;5052543;28;20601;-47
2021/06/10 00:56:31;;;;;;;6.78;5.43;;;;;;;15.04;nan;102048.03;5049257;28;20106;-51
2021/06/10 00:58:56;;;;;;;6.88;5.57;;;;;;;15.04;nan;102060.72;5053078;28;20525;-48
2021/06/10 01:01:22;;;;;;;6.13;5.30;;;;;;;15.03;nan;102061.78;5052648;28;20031;-46
2021/06/10 01:03:48;;;;;;;7.72;5.28;;;;;;;15.01;nan;102064.72;5052344;28;20024;-49
2021/06/10 01:06:30;;;;;;;8.65;6.40;;;;;;;14.96;nan;102063.84;5049136;28;20112;-49
2021/06/10 01:09:04;;;;;;;8.50;5.90;;;;;;;14.99;nan;102071.44;5050702;28;20082;-48
2021/06/10 01:11:57;;;;;;;8.30;6.28;;;;;;;14.99;nan;102064.16;5048903;28;20420;-46
2021/06/10 01:14:39;;;;;;;11.85;7.05;;;;;;;15.06;nan;102061.28;5050497;28;20017;-48
2021/06/10 01:17:06;;;;;;;8.32;6.10;;;;;;;15.05;nan;102065.88;5053675;28;20479;-49
2021/06/10 01:19:57;;;;;;;10.05;6.75;;;;;;;15.03;nan;102064.47;5052833;28;20035;-49
2021/06/10 01:22:33;;;;;;;9.07;6.32;;;;;;;14.98;nan;102059.00;5053572;28;20028;-48
2021/06/10 01:25:28;;;;;;;7.43;6.40;;;;;;;14.97;nan;102060.06;5050238;28;20548;-48
2021/06/10 01:27:57;;;;;;;7.55;6.13;;;;;;;14.94;nan;102045.19;5047800;28;20494;-48
2021/06/10 01:30:34;;;;;;;8.82;7.10;;;;;;;14.91;nan;102052.97;5047841;28;20035;-48
2021/06/10 01:33:07;;;;;;;8.40;5.97;;;;;;;14.95;nan;102051.41;5051947;28;20224;-47
2021/06/10 01:35:37;;;;;;;10.77;6.88;;;;;;;14.94;nan;102063.28;5047115;28;20094;-48
2021/06/10 01:38:05;;;;;;;7.88;6.25;;;;;;;14.99;nan;102060.66;5049549;28;20119;-46
2021/06/10 01:40:31;;;;;;;10.60;6.45;;;;;;;15.04;nan;102058.84;5053206;28;20115;-47
2021/06/10 01:42:58;;;;;;;9.38;6.57;;;;;;;15.10;nan;102065.97;5053658;28;20604;-48
2021/06/10 01:45:24;;;;;;;10.45;6.05;;;;;;;15.19;nan;102068.25;5054187;28;20108;-49
2021/06/10 01:47:51;;;;;;;9.15;6.75;;;;;;;15.25;nan;102065.38;5053296;28;20021;-47
2021/06/10 01:50:19;;;;;;;9.75;6.57;;;;;;;15.28;nan;102064.91;5057156;28;20027;-47
2021/06/10 01:52:46;;;;;;;8.60;6.07;;;;;;;15.32;nan;102071.44;5056372;28;20490;-48
2021/06/10 01:55:15;;;;;;;9.48;6.68;;;;;;;15.32;nan;102060.63;5049565;28;20565;-47
2021/06/10 01:57:42;;;;;;;9.82;6.85;;;;;;;15.36;nan;102064.47;5046702;28;20044;-50
2021/06/10 02:00:10;;;;;;;11.63;6.40;;;;;;;15.41;nan;102058.31;5055822;28;20028;-47
2021/06/10 02:02:37;;;;;;;13.27;6.97;;;;;;;15.39;nan;102050.47;5050257;28;20390;-49
2021/06/10 02:05:08;;;;;;;11.90;6.93;;;;;;;15.34;nan;102044.19;5048864;28;20059;-46
2021/06/10 02:07:39;;;;;;;7.53;6.40;;;;;;;15.26;nan;102045.44;5052249;28;20025;-51
2021/06/10 02:10:08;;;;;;;8.90;7.35;;;;;;;15.17;nan;102051.47;5049765;28;20036;-52
2021/06/10 02:12:34;;;;;;;8.43;7.22;;;;;;;15.24;nan;102046.72;5052187;28;20514;-50
2021/06/10 02:15:06;;;;;;;11.25;6.90;;;;;;;15.22;nan;102063.16;5054120;28;20242;-47
2021/06/10 02:17:33;;;;;;;11.10;7.35;;;;;;;15.18;nan;102086.31;5057660;28;20028;-47
2021/06/10 02:19:58;;;;;;;11.05;8.25;;;;;;;14.55;nan;102105.50;5048033;28;20082;-46
2021/06/10 02:22:24;;;;;;;11.85;8.65;;;;;;;14.34;nan;102123.09;5049977;28;20385;-46
2021/06/10 02:24:51;;;;;;;10.38;7.88;;;;;;;14.33;nan;102122.28;5045001;28;20104;-46
2021/06/10 02:27:17;;;;;;;9.35;7.65;;;;;;;14.45;nan;102108.78;5053248;28;20028;-47
2021/06/10 02:29:43;;;;;;;12.93;7.57;;;;;;;14.66;nan;102112.69;5055111;28;20498;-46
2021/06/10 02:32:09;;;;;;;9.75;6.80;;;;;;;14.74;nan;102104.22;5051816;28;20307;-47
2021/06/10 02:34:34;;;;;;;8.48;6.60;;;;;;;14.94;nan;102092.97;5050515;28;20447;-47
2021/06/10 02:37:01;;;;;;;9.60;6.32;;;;;;;15.13;nan;102077.34;5050759;28;20032;-46
2021/06/10 02:39:27;;;;;;;10.48;7.28;;;;;;;15.23;nan;102074.78;5053109;28;20493;-46
2021/06/10 02:41:54;;;;;;;9.60;8.02;;;;;;;15.33;nan;102062.25;5050159;28;20036;-45
2021/06/10 02:44:20;;;;;;;13.75;8.63;;;;;;;15.41;nan;102045.63;5046604;28;20021;-45
2021/06/10 02:46:46;;;;;;;12.38;9.63;;;;;;;15.38;nan;102027.22;5050059;28;20025;-46
2021/06/10 02:49:13;;;;;;;12.82;9.82;;;;;;;15.27;nan;102044.34;5051983;28;20958;-46
2021/06/10 02:51:39;;;;;;;13.77;9.82;;;;;;;15.26;nan;102040.03;5051753;28;20457;-45
2021/06/10 02:54:11;;;;;;;14.82;9.65;;;;;;;15.34;nan;102047.69;5055103;28;20181;-45
2021/06/10 02:56:38;;;;;;;17.08;9.60;;;;;;;15.40;nan;102051.28;5047016;28;20029;-46
2021/06/10 02:59:04;;;;;;;12.75;10.07;;;;;;;15.43;nan;102048.06;5050844;28;20553;-45
2021/06/10 03:01:35;;;;;;;14.23;10.07;;;;;;;15.38;nan;102039.91;5049842;28;20036;-46
2021/06/10 03:04:02;;;;;;;15.93;10.68;;;;;;;15.47;nan;102040.31;5053488;28;20031;-46
2021/06/10 03:06:28;;;;;;;15.75;10.00;;;;;;;15.50;nan;102034.41;5046813;28;20453;-46
2021/06/10 03:08:54;;;;;;;14.48;10.18;;;;;;;15.52;nan;102032.28;5051274;28;20127;-46
2021/06/10 03:11:21;;;;;;;14.77;10.27;;;;;;;15.61;nan;102036.19;5058344;28;20056;-46
2021/06/10 03:13:48;;;;;;;10.77;9.68;;;;;;;15.70;nan;102026.59;5044653;28;20032;-46
2021/06/10 03:16:14;;;;;;;13.18;10.57;;;;;;;15.81;nan;102025.66;5054926;28;20024;-45
2021/06/10 03:18:40;;;;;;;11.90;9.73;;;;;;;15.90;nan;102026.84;5047887;28;20245;-46
2021/06/10 03:21:06;;;;;;;15.63;10.35;;;;;;;16.01;nan;102027.78;5054582;28;20499;-47
2021/06/10 03:23:32;;;;;;;13.65;11.38;;;;;;;16.09;nan;102027.31;5057180;28;20052;-45
2021/06/10 03:26:02;;;;;;;17.48;11.48;;;;;;;16.20;nan;102031.78;5051787;28;20407;-46
2021/06/10 03:28:29;;;;;;;13.57;10.68;;;;;;;16.33;nan;102022.44;5053278;28;20028;-46
2021/06/10 03:30:55;;;;;;;18.77;12.50;;;;;;;16.43;nan;102024.44;5051664;28;20098;-46
2021/06/10 03:33:22;;;;;;;15.10;11.43;;;;;;;16.49;nan;102021.50;5055479;28;20025;-46
2021/06/10 03:35:49;;;;;;;13.93;11.05;;;;;;;16.54;nan;102018.88;5052845;28;20135;-46
2021/06/10 03:38:15;;;;;;;15.05;11.65;;;;;;;16.55;nan;102009.69;5057223;28;20078;-46
2021/06/10 03:40:44;;;;;;;14.10;11.68;;;;;;;16.60;nan;102015.13;5050833;28;20078;-46
2021/06/10 03:43:12;;;;;;;18.20;11.20;;;;;;;16.67;nan;102012.22;5053655;28;20352;-46
2021/06/10 03:45:38;;;;;;;14.88;11.48;;;;;;;16.77;nan;102011.50;5037887;28;20636;-45
2021/06/10 03:48:05;;;;;;;12.65;10.90;;;;;;;16.82;nan;102012.34;5054600;28;20024;-47
2021/06/10 03:50:31;;;;;;;16.60;11.55;;;;;;;16.88;nan;102011.34;5060487;28;20028;-46
2021/06/10 03:52:57;;;;;;;14.30;11.55;;;;;;;16.96;nan;102014.63;5057777;28;20968;-48
2021/06/10 03:55:23;;;;;;;21.27;12.35;;;;;;;17.01;nan;102018.16;5056515;28;20258;-46
2021/06/10 03:57:49;;;;;;;17.20;11.77;;;;;;;17.04;nan;102023.06;5053935;28;20126;-47
2021/06/10 04:00:16;;;;;;;15.73;11.70;;;;;;;17.09;nan;102023.13;5036081;28;20021;-46
2021/06/10 04:02:41;;;;;;;16.58;11.55;;;;;;;17.13;nan;102016.09;5053439;28;20025;-46
2021/06/10 04:05:08;;;;;;;13.50;11.20;;;;;;;17.19;nan;102012.34;5057661;28;20403;-46
2021/06/10 04:07:34;;;;;;;13.27;10.63;;;;;;;17.20;nan;102008.53;5056034;28;20518;-48
2021/06/10 04:09:59;;;;;;;13.45;10.57;;;;;;;17.29;nan;102016.19;5060128;28;20033;-46
2021/06/10 04:12:24;;;;;;;14.75;10.35;;;;;;;17.35;nan;102012.44;5059452;28;20056;-46
2021/06/10 04:14:50;;;;;;;13.43;10.48;;;;;;;17.42;nan;102016.56;5061234;28;20620;-46
2021/06/10 04:17:16;;;;;;;13.13;9.43;;;;;;;17.50;nan;102031.47;5065520;28;20441;-46
2021/06/10 04:19:41;;;;;;;12.10;10.15;;;;;;;17.55;nan;102026.09;5061274;28;20028;-46
2021/06/10 04:22:07;;;;;;;14.18;11.05;;;;;;;17.59;nan;102026.38;5060274;28;20028;-46
2021/06/10 04:24:33;;;;;;;12.95;10.07;;;;;;;17.60;nan;102025.31;5067111;28;20024;-46
2021/06/10 04:27:00;;;;;;;14.07;10.55;;;;;;;17.67;nan;102021.25;5058122;28;20036;-46
2021/06/10 04:29:27;;;;;;;11.93;10.43;;;;;;;17.77;nan;102031.34;5063118;28;20029;-46
2021/06/10 04:31:52;;;;;;;12.13;9.77;;;;;;;17.88;nan;102021.38;5054605;28;20691;-46
2021/06/10 04:34:18;;;;;;;12.00;10.52;;;;;;;17.95;nan;102021.94;5061504;28;20024;-47
2021/06/10 04:36:43;;;;;;;11.30;9.32;;;;;;;18.03;nan;102024.13;5056952;28;20031;-46
2021/06/10 04:39:10;;;;;;;11.05;8.70;;;;;;;18.08;nan;102032.28;5057489;28;20496;-46
2021/06/10 04:41:35;;;;;;;12.35;9.68;;;;;;;18.16;nan;102028.25;5056992;28;20021;-47
2021/06/10 04:44:01;;;;;;;10.25;8.80;;;;;;;18.21;nan;102031.78;5054556;28;20079;-46
2021/06/10 04:46:27;;;;;;;14.10;9.75;;;;;;;18.30;nan;102023.91;5051411;28;20545;-46
2021/06/10 04:48:53;;;;;;;11.60;9.20;;;;;;;18.39;nan;102028.56;5057099;28;20036;-46
2021/06/10 04:51:19;;;;;;;11.43;9.23;;;;;;;18.49;nan;102033.19;5056426;28;20418;-47
2021/06/10 04:53:46;;;;;;;11.73;9.43;;;;;;;18.57;nan;102023.69;5050375;28;20021;-47
2021/06/10 04:56:12;;;;;;;10.95;9.27;;;;;;;18.67;nan;102031.84;5050812;28;20437;-46
2021/06/10 04:58:38;;;;;;;12.60;9.55;;;;;;;18.78;nan;102024.53;5052244;28;20090;-46
2021/06/10 05:01:04;;;;;;;10.55;9.10;;;;;;;18.60;nan;102034.00;5050159;28;20252;-47
2021/06/10 05:03:30;;;;;;;10.23;8.02;;;;;;;18.50;nan;102023.16;5036704;28;20028;-47
2021/06/10 05:05:55;;;;;;;10.00;8.75;;;;;;;18.68;nan;102028.09;5048871;28;20025;-46
2021/06/10 05:08:21;;;;;;;10.50;8.65;;;;;;;18.81;nan;102024.81;5050251;28;20040;-46
2021/06/10 05:10:47;;;;;;;9.55;7.68;;;;;;;19.05;nan;102019.63;5046650;28;20032;-46
2021/06/10 05:13:12;;;;;;;8.88;7.97;;;;;;;19.26;nan;102017.69;5053734;28;20486;-46
2021/06/10 05:15:37;;;;;;;10.60;7.47;;;;;;;19.44;nan;102011.66;5055184;28;20020;-46
2021/06/10 05:18:04;;;;;;;9.07;7.70;;;;;;;19.56;nan;102014.91;5050902;28;20032;-46
2021/06/10 05:20:29;;;;;;;7.80;6.18;;;;;;;19.73;nan;102019.19;5052740;28;20111;-46
2021/06/10 05:22:55;;;;;;;7.15;6.35;;;;;;;19.86;nan;102016.69;5053182;28;20030;-46
2021/06/10 05:25:20;;;;;;;8.25;6.22;;;;;;;20.03;nan;102021.75;5047843;28;20031;-47
2021/06/10 05:27:46;;;;;;;7.55;5.68;;;;;;;20.16;nan;102018.44;5057088;28;20028;-46
2021/06/10 05:30:11;;;;;;;5.18;4.68;;;;;;;20.21;nan;102023.84;5050627;28;20459;-47
2021/06/10 05:32:37;;;;;;;6.10;5.00;;;;;;;20.36;nan;102025.66;5058180;28;20034;-47
2021/06/10 05:35:03;;;;;;;6.82;5.20;;;;;;;20.48;nan;102017.16;5050728;28;20040;-46
2021/06/10 05:37:29;;;;;;;5.95;4.90;;;;;;;20.52;nan;102023.66;5051197;28;20036;-46
2021/06/10 05:39:54;;;;;;;5.38;4.15;;;;;;;20.69;nan;102026.78;5050374;28;20036;-47
2021/06/10 05:42:20;;;;;;;6.15;4.28;;;;;;;20.85;nan;102021.22;5052912;28;20449;-47
2021/06/10 05:44:45;;;;;;;8.75;4.63;;;;;;;20.96;nan;102018.09;5048287;28;20029;-47
2021/06/10 05:47:11;;;;;;;5.50;4.18;;;;;;;21.10;nan;102020.97;5052429;28;20398;-48
2021/06/10 05:49:37;;;;;;;5.57;4.25;;;;;;;21.24;nan;102027.41;5050438;28;20569;-47
2021/06/10 05:52:03;;;;;;;5.38;3.90;;;;;;;21.36;nan;102018.81;5052214;28;20032;-47
2021/06/10 05:54:29;;;;;;;5.78;3.90;;;;;;;21.44;nan;102018.19;5051318;28;20032;-46
2021/06/10 05:56:55;;;;;;;5.68;3.70;;;;;;;21.54;nan;102028.13;5050682;28;20029;-47
2021/06/10 05:59:20;;;;;;;5.43;3.83;;;;;;;21.65;nan;102018.75;5052994;28;20068;-46
2021/06/10 06:01:46;;;;;;;5.28;3.47;;;;;;;21.73;nan;102022.75;5049036;28;20521;-48
2021/06/10 06:04:11;;;;;;;7.63;4.05;;;;;;;21.79;nan;102018.84;5052247;28;20102;-46
2021/06/10 06:06:38;;;;;;;6.50;3.45;;;;;;;21.91;nan;102020.06;5047458;28;20029;-47
2021/06/10 06:09:07;;;;;;;5.10;4.05;;;;;;;22.07;nan;102019.84;5050892;28;20474;-46
2021/06/10 06:11:33;;;;;;;5.28;3.50;;;;;;;22.20;nan;102017.19;5049524;28;20029;-46
2021/06/10 06:14:08;;;;;;;5.13;3.83;;;;;;;22.28;nan;102016.56;5050985;28;20032;-46
2021/06/10 06:16:42;;;;;;;4.45;3.60;;;;;;;22.41;nan;102027.81;5051703;28;20031;-47
2021/06/10 06:19:11;;;;;;;5.45;4.20;;;;;;;22.55;nan;102028.69;5050975;28;20024;-47
2021/06/10 06:21:38;;;;;;;4.28;3.70;;;;;;;22.71;nan;102034.72;5049780;28;20033;-47
2021/06/10 06:24:04;;;;;;;6.93;4.50;;;;;;;22.86;nan;102034.50;5049103;28;20028;-47
2021/06/10 06:26:30;;;;;;;5.70;3.60;;;;;;;22.99;nan;102027.44;5050267;28;20055;-46
2021/06/10 06:28:59;;;;;;;4.70;4.20;;;;;;;23.13;nan;102042.72;5049649;28;20490;-47
2021/06/10 06:31:26;;;;;;;4.10;3.40;;;;;;;23.24;nan;102037.09;5049505;28;20017;-46
2021/06/10 06:33:52;;;;;;;5.70;3.80;;;;;;;23.38;nan;102032.44;5043459;28;20091;-47
2021/06/10 06:36:17;;;;;;;6.93;3.38;;;;;;;23.39;nan;102034.88;5055872;28;20156;-47
2021/06/10 06:38:43;;;;;;;7.07;3.45;;;;;;;23.46;nan;102029.00;5039033;28;20056;-48
2021/06/10 06:41:09;;;;;;;4.43;2.90;;;;;;;23.62;nan;102032.25;5056759;28;20021;-48
2021/06/10 06:43:34;;;;;;;3.92;2.72;;;;;;;23.75;nan;102032.25;5055675;28;20029;-46
2021/06/10 06:46:00;;;;;;;3.40;2.90;;;;;;;23.90;nan;102030.31;5052244;28;20035;-47
2021/06/10 06:48:28;;;;;;;4.93;2.95;;;;;;;23.95;nan;102027.47;5055707;28;20086;-47
2021/06/10 06:50:54;;;;;;;2.70;2.47;;;;;;;24.04;nan;102028.34;5052447;28;20102;-46
2021/06/10 06:53:19;;;;;;;3.25;2.67;;;;;;;24.16;nan;102039.56;5058222;28;20036;-47
2021/06/10 06:55:45;;;;;;;3.05;2.75;;;;;;;24.23;nan;102020.78;5051411;28;20024;-47
2021/06/10 06:58:10;;;;;;;3.72;2.80;;;;;;;24.20;nan;102029.63;5054963;28;20379;-47
2021/06/10 07:00:36;;;;;;;5.15;3.10;;;;;;;24.29;nan;102025.06;5054405;28;20052;-48
2021/06/10 07:03:02;;;;;;;6.47;3.33;;;;;;;24.25;nan;102028.72;5055972;28;20386;-47
2021/06/10 07:05:27;;;;;;;3.58;2.80;;;;;;;24.38;nan;102033.34;5054382;28;20025;-46
2021/06/10 07:07:53;;;;;;;3.65;2.58;;;;;;;24.36;nan;102030.09;5052969;28;20040;-46
2021/06/10 07:10:18;;;;;;;4.38;2.38;;;;;;;24.48;nan;102032.31;5054451;28;20123;-47
2021/06/10 07:12:44;;;;;;;6.20;2.60;;;;;;;24.53;nan;102032.16;5051975;28;20040;-47
2021/06/10 07:15:10;;;;;;;3.65;3.00;;;;;;;24.70;nan;102033.09;5053023;28;20028;-47
2021/06/10 07:17:36;;;;;;;6.00;2.72;;;;;;;24.65;nan;102030.50;5052471;28;20029;-47
2021/06/10 07:20:03;;;;;;;4.82;2.90;;;;;;;24.74;nan;102036.03;5053039;28;20434;-48
2021/06/10 07:22:32;;;;;;;2.80;2.38;;;;;;;24.79;nan;102032.38;5055483;28;20031;-47
2021/06/10 07:24:58;;;;;;;4.75;3.20;;;;;;;24.90;nan;102036.44;5052295;28;20044;-47
2021/06/10 07:27:24;;;;;;;6.10;3.10;;;;;;;25.02;nan;102033.16;5053469;28;20025;-47
2021/06/10 07:29:49;;;;;;;3.75;3.22;;;;;;;25.18;nan;102039.84;5050706;28;20032;-47
2021/06/10 07:32:15;;;;;;;4.55;3.10;;;;;;;25.19;nan;102036.78;5055323;28;20028;-47
2021/06/10 07:34:42;;;;;;;4.22;3.28;;;;;;;25.32;nan;102037.81;5054471;28;20214;-47
2021/06/10 07:37:08;;;;;;;3.78;3.38;;;;;;;25.38;nan;102036.56;5053262;28;20340;-47
2021/06/10 07:39:35;;;;;;;4.88;3.17;;;;;;;25.50;nan;102041.44;5052626;28;20028;-47
2021/06/10 07:42:01;;;;;;;4.18;2.90;;;;;;;25.57;nan;102039.03;5055603;28;20038;-47
2021/06/10 07:44:29;;;;;;;3.17;2.88;;;;;;;25.77;nan;102040.41;5050032;28;20036;-47
2021/06/10 07:46:55;;;;;;;3.17;2.75;;;;;;;25.92;nan;102039.97;5056838;28;20077;-48
2021/06/10 07:49:21;;;;;;;4.45;3.13;;;;;;;26.13;nan;102038.19;5052561;28;20033;-47
2021/06/10 07:51:46;;;;;;;3.33;3.03;;;;;;;26.09;nan;102034.47;5052475;28;20036;-47
2021/06/10 07:54:12;;;;;;;4.78;2.90;;;;;;;26.07;nan;102047.72;5057000;28;20017;-47
2021/06/10 07:56:38;;;;;;;3.70;3.33;;;;;;;26.25;nan;102042.25;5051198;28;20395;-48
2021/06/10 07:59:03;;;;;;;3.35;2.78;;;;;;;26.40;nan;102044.53;5054655;28;20033;-47
2021/06/10 08:01:29;;;;;;;3.78;2.97;;;;;;;25.89;nan;102046.91;5054919;28;20582;-47
2021/06/10 08:03:55;;;;;;;5.38;3.25;;;;;;;25.14;nan;102047.09;5054991;28;20025;-47
2021/06/10 08:06:20;;;;;;;4.55;3.20;;;;;;;25.43;nan;102052.06;5053336;28;20387;-47
2021/06/10 08:08:47;;;;;;;3.83;3.17;;;;;;;25.69;nan;102047.50;5056959;28;20394;-47
2021/06/10 08:11:12;;;;;;;3.95;2.97;;;;;;;26.09;nan;102050.97;5057689;28;20029;-47
2021/06/10 08:13:38;;;;;;;6.10;3.40;;;;;;;26.13;nan;102051.13;5055726;28;20036;-47
2021/06/10 08:16:04;;;;;;;4.40;3.60;;;;;;;26.05;nan;102050.00;5055416;28;20021;-48
2021/06/10 08:18:30;;;;;;;4.50;3.25;;;;;;;26.01;nan;102049.00;5057216;28;20590;-47
2021/06/10 08:20:59;;;;;;;4.93;3.47;;;;;;;25.83;nan;102050.09;5058786;28;20020;-47
2021/06/10 08:23:26;;;;;;;3.42;3.13;;;;;;;25.55;nan;102046.78;5059512;28;20028;-47
2021/06/10 08:25:54;;;;;;;3.97;3.17;;;;;;;25.30;nan;102051.03;5049231;28;20474;-47
2021/06/10 08:28:20;;;;;;;6.18;4.15;;;;;;;24.93;nan;102039.34;5049885;28;20372;-47
2021/06/10 08:30:46;;;;;;;7.03;4.10;;;;;;;24.41;nan;102043.66;5051068;28;20196;-47
2021/06/10 08:33:11;;;;;;;5.72;4.03;;;;;;;25.05;nan;102043.50;5049351;28;20022;-47
2021/06/10 08:35:37;;;;;;;4.38;3.88;;;;;;;24.93;nan;102047.59;5049102;28;20356;-46
2021/06/10 08:38:06;;;;;;;4.22;3.50;;;;;;;25.12;nan;102043.84;5049788;28;20032;-47
2021/06/10 08:40:33;;;;;;;3.65;3.28;;;;;;;25.33;nan;102050.41;5050583;28;20030;-47
2021/06/10 08:43:00;;;;;;;5.65;3.70;;;;;;;25.46;nan;102045.94;5041225;28;20085;-46
2021/06/10 08:45:28;;;;;;;4.03;3.63;;;;;;;25.64;nan;102049.53;5038616;28;20040;-47
2021/06/10 08:47:54;;;;;;;5.80;4.15;;;;;;;25.47;nan;102056.59;5048048;28;20631;-47
2021/06/10 08:50:24;;;;;;;4.95;3.88;;;;;;;25.92;nan;102055.63;5040375;28;20016;-47
2021/06/10 08:52:54;;;;;;;4.82;3.85;;;;;;;25.85;nan;102042.34;5054751;28;20442;-47
2021/06/10 08:55:20;;;;;;;4.70;3.88;;;;;;;26.52;nan;102047.44;5052790;28;20182;-47
2021/06/10 08:57:46;;;;;;;6.05;3.97;;;;;;;26.77;nan;102043.84;5047729;28;20116;-47
2021/06/10 09:00:13;;;;;;;5.10;3.88;;;;;;;26.87;nan;102044.63;5046022;28;20386;-46
2021/06/10 09:02:39;;;;;;;3.60;3.25;;;;;;;27.27;nan;102043.22;5052753;28;20029;-47
2021/06/10 09:05:07;;;;;;;4.75;3.50;;;;;;;27.21;nan;102043.75;5054999;28;20021;-47
2021/06/10 09:07:46;;;;;;;4.53;3.40;;;;;;;27.59;nan;102044.53;5055167;28;20036;-46
2021/06/10 09:10:12;;;;;;;5.97;4.22;;;;;;;27.26;nan;102041.59;5058405;28;20044;-46
2021/06/10 09:12:48;;;;;;;5.07;3.67;;;;;;;26.54;nan;102055.34;5053690;28;20083;-47
2021/06/10 09:15:16;;;;;;;4.63;3.70;;;;;;;25.96;nan;102048.34;5056923;28;20013;-47
2021/06/10 09:17:42;;;;;;;4.38;3.35;;;;;;;26.64;nan;102053.09;5051397;28;20059;-47
2021/06/10 09:20:23;;;;;;;4.95;2.85;;;;;;;27.32;nan;102045.81;5056866;28;20087;-47
2021/06/10 09:22:51;;;;;;;3.10;2.75;;;;;;;27.83;nan;102043.97;5052998;28;20033;-46
2021/06/10 09:25:20;;;;;;;3.42;2.80;;;;;;;28.31;nan;102045.38;5056092;28;20058;-46
2021/06/10 09:27:57;;;;;;;4.25;3.08;;;;;;;28.63;nan;102043.00;5056869;28;20382;-48
2021/06/10 09:30:42;;;;;;;3.55;3.15;;;;;;;28.86;nan;102047.00;5059629;28;20028;-46
2021/06/10 09:33:16;;;;;;;3.83;3.17;;;;;;;28.64;nan;102039.09;5056697;28;20040;-47
2021/06/10 09:35:43;;;;;;;3.10;2.85;;;;;;;28.98;nan;102041.50;5055145;28;20027;-47
2021/06/10 09:38:17;;;;;;;3.78;3.38;;;;;;;28.97;nan;102044.63;5055343;28;20032;-48
2021/06/10 09:40:44;;;;;;;3.90;3.50;;;;;;;29.02;nan;102036.09;5058019;28;20031;-48
2021/06/10 09:43:10;;;;;;;2.95;2.70;;;;;;;29.18;nan;102037.84;5054952;28;20568;-46
2021/06/10 09:45:37;;;;;;;4.63;3.38;;;;;;;29.39;nan;102045.22;5053747;28;20391;-47
2021/06/10 09:48:05;;;;;;;5.40;3.50;;;;;;;29.58;nan;102039.97;5055402;28;20032;-47
2021/06/10 09:50:43;;;;;;;4.15;2.90;;;;;;;29.42;nan;102039.00;5054596;28;20158;-47
2021/06/10 09:53:09;;;;;;;5.15;4.00;;;;;;;28.36;nan;102038.84;5057460;28;20032;-48
2021/06/10 09:55:42;;;;;;;5.07;3.08;;;;;;;28.75;nan;102034.78;5054348;28;20387;-47
2021/06/10 09:58:13;;;;;;;4.32;3.55;;;;;;;29.07;nan;102038.63;5056979;28;20029;-48
2021/06/10 10:00:52;;;;;;;5.00;3.90;;;;;;;28.75;nan;102032.00;5050838;28;20025;-47
2021/06/10 10:03:30;;;;;;;5.30;3.28;;;;;;;28.54;nan;102043.06;5053256;28;20029;-48
2021/06/10 10:06:12;;;;;;;5.03;3.58;;;;;;;28.62;nan;102041.38;5053974;28;20036;-47
2021/06/10 10:08:39;;;;;;;3.63;3.08;;;;;;;28.54;nan;102038.34;5051281;28;20107;-47
2021/06/10 10:11:07;;;;;;;3.42;2.78;;;;;;;28.43;nan;102034.44;5056597;28;20585;-47
2021/06/10 10:13:33;;;;;;;3.58;2.65;;;;;;;28.75;nan;102034.78;5054974;28;20059;-47
2021/06/10 10:16:01;;;;;;;2.58;2.38;;;;;;;27.76;nan;102034.59;5054030;28;20024;-46
2021/06/10 10:18:27;;;;;;;3.00;2.60;;;;;;;27.07;nan;102035.69;5052442;28;20119;-46
2021/06/10 10:20:52;;;;;;;3.78;3.35;;;;;;;26.98;nan;102038.47;5053426;28;20104;-47
2021/06/10 10:23:18;;;;;;;3.30;2.65;;;;;;;27.51;nan;102036.34;5048652;28;20087;-47
2021/06/10 10:25:44;;;;;;;2.83;2.63;;;;;;;27.99;nan;102028.41;5052104;28;20111;-47
2021/06/10 10:28:11;;;;;;;2.80;2.50;;;;;;;27.29;nan;102029.13;5052427;28;20031;-47
2021/06/10 10:30:38;;;;;;;4.40;2.47;;;;;;;27.63;nan;102030.94;5050098;28;20071;-47
2021/06/10 10:33:17;;;;;;;4.70;2.53;;;;;;;28.07;nan;102024.00;5055155;28;20036;-47
2021/06/10 10:36:00;;;;;;;2.97;2.67;;;;;;;28.35;nan;102018.75;5055408;28;20127;-47
2021/06/10 10:38:59;;;;;;;2.65;2.30;;;;;;;28.35;nan;102018.75;5052747;28;20369;-47
2021/06/10 10:41:25;;;;;;;3.40;2.10;;;;;;;28.36;nan;102020.38;5020080;28;20086;-47
2021/06/10 10:44:10;;;;;;;3.95;2.53;;;;;;;28.11;nan;102021.38;5052497;28;20161;-47
2021/06/10 10:46:36;;;;;;;5.38;2.72;;;;;;;28.12;nan;102021.03;5052064;28;20035;-47
2021/06/10 10:49:20;;;;;;;3.40;2.55;;;;;;;27.31;nan;102018.63;5054160;28;20020;-47
2021/06/10 10:51:46;;;;;;;2.85;2.20;;;;;;;26.93;nan;102018.56;5053230;28;20048;-47
2021/06/10 10:54:34;;;;;;;2.22;2.03;;;;;;;27.45;nan;102018.38;5054770;28;20063;-47
2021/06/10 10:57:00;;;;;;;3.42;2.00;;;;;;;27.82;nan;102012.03;5041294;28;20032;-48
2021/06/10 10:59:40;;;;;;;3.25;2.30;;;;;;;27.62;nan;102010.81;5053507;28;20027;-48
2021/06/10 11:02:07;;;;;;;3.42;2.03;;;;;;;27.71;nan;102013.56;5054704;28;20030;-47
2021/06/10 11:04:56;;;;;;;2.67;2.15;;;;;;;27.74;nan;102003.84;5052258;28;20029;-47
2021/06/10 11:07:38;;;;;;;4.43;2.00;;;;;;;27.64;nan;102014.06;5049942;28;20115;-48
2021/06/10 11:10:15;;;;;;;2.78;1.75;;;;;;;27.73;nan;102005.78;5055815;28;20402;-47
2021/06/10 11:12:44;;;;;;;1.70;1.60;;;;;;;27.21;nan;102003.28;5052511;28;20029;-48
2021/06/10 11:15:38;;;;;;;1.75;1.33;;;;;;;27.02;nan;102003.69;5050976;28;20067;-46
2021/06/10 11:18:07;;;;;;;1.83;1.40;;;;;;;27.50;nan;102004.44;5048925;28;20028;-47
2021/06/10 11:20:38;;;;;;;2.70;1.67;;;;;;;27.82;nan;101997.44;5048423;28;20118;-48
2021/06/10 11:23:26;;;;;;;2.13;1.58;;;;;;;27.94;nan;101992.00;5049177;28;20099;-47
2021/06/10 11:25:53;;;;;;;1.50;1.40;;;;;;;28.36;nan;101992.00;5055895;28;20111;-48
2021/06/10 11:28:21;;;;;;;1.45;1.27;;;;;;;28.71;nan;101978.66;5057449;28;20025;-47
2021/06/10 11:30:48;;;;;;;1.75;1.33;;;;;;;28.93;nan;101991.28;5043524;28;20116;-48
2021/06/10 11:33:17;;;;;;;1.40;1.30;;;;;;;29.12;nan;101989.56;5060042;28;20040;-48
2021/06/10 11:35:54;;;;;;;2.17;1.48;;;;;;;27.87;nan;101987.06;5054735;28;20400;-47
2021/06/10 11:38:31;;;;;;;2.33;1.20;;;;;;;27.63;nan;101992.38;5057321;28;20496;-48
2021/06/10 11:41:01;;;;;;;1.58;1.13;;;;;;;27.80;nan;101978.50;5056315;28;20064;-47
2021/06/10 11:43:29;;;;;;;5.88;1.35;;;;;;;27.10;nan;101980.00;5056268;28;20397;-48